createdAt,value
2023-04-15T00:00:58.496Z,100890.84
2023-04-15T00:03:25.745Z,100889.41
2023-04-15T00:05:52.785Z,100883.25
2023-04-15T00:08:20.617Z,100890.03
2023-04-15T00:10:47.970Z,100886.94
2023-04-15T00:13:15.532Z,100882.81
2023-04-15T00:15:43.387Z,100879.53
2023-04-15T00:18:10.413Z,100884.91
2023-04-15T00:20:37.724Z,100887.16
2023-04-15T00:23:05.645Z,100885.53
2023-04-15T00:25:33.039Z,100892.31
2023-04-15T00:27:59.926Z,100881.78
2023-04-15T00:30:26.788Z,100894.00
2023-04-15T00:32:53.816Z,100885.75
2023-04-15T00:35:22.534Z,100890.25
2023-04-15T00:37:51.488Z,100885.72
2023-04-15T00:40:21.090Z,100892.91
2023-04-15T00:42:48.356Z,100886.31
2023-04-15T00:45:15.788Z,100892.50
2023-04-15T00:47:44.214Z,100894.16
2023-04-15T00:50:12.633Z,100899.91
2023-04-15T00:52:40.219Z,100896.84
2023-04-15T00:55:08.001Z,100899.94
2023-04-15T00:57:36.063Z,100899.28
2023-04-15T01:00:04.685Z,100910.84
2023-04-15T01:02:33.013Z,100903.00
2023-04-15T01:05:01.984Z,100911.44
2023-04-15T01:07:28.793Z,100897.00
2023-04-15T01:09:55.719Z,100898.88
2023-04-15T01:12:24.688Z,100903.00
2023-04-15T01:14:51.484Z,100903.59
2023-04-15T01:17:19.123Z,100897.84
2023-04-15T01:19:46.676Z,100905.28
2023-04-15T01:22:13.598Z,100898.47
2023-04-15T01:24:41.132Z,100896.00
2023-04-15T01:27:07.938Z,100902.16
2023-04-15T01:29:38.572Z,100886.72
2023-04-15T01:32:05.945Z,100889.81
2023-04-15T01:34:35.552Z,100890.81
2023-04-15T01:37:02.595Z,100888.75
2023-04-15T01:39:29.331Z,100889.94
2023-04-15T01:41:57.482Z,100884.56
2023-04-15T01:44:24.592Z,100886.00
2023-04-15T01:46:51.362Z,100879.47
2023-04-15T01:49:18.970Z,100885.44
2023-04-15T01:51:45.785Z,100884.41
2023-04-15T01:54:13.072Z,100883.34
2023-04-15T01:56:39.883Z,100885.44
2023-04-15T01:59:06.722Z,100875.75
2023-04-15T02:01:33.994Z,100878.63
2023-04-15T02:04:01.159Z,100885.41
2023-04-15T02:06:28.348Z,100886.00
2023-04-15T02:08:55.598Z,100888.47
2023-04-15T02:11:23.208Z,100891.38
2023-04-15T02:13:50.177Z,100901.22
2023-04-15T02:16:20.709Z,100911.28
2023-04-15T02:18:48.019Z,100904.06
2023-04-15T02:21:14.910Z,100906.88
2023-04-15T02:23:41.679Z,100897.81
2023-04-15T02:26:08.524Z,100891.28
2023-04-15T02:28:35.906Z,100893.97
2023-04-15T02:31:06.639Z,100899.69
2023-04-15T02:33:33.864Z,100894.31
2023-04-15T02:36:01.085Z,100891.59
2023-04-15T02:38:28.659Z,100896.13
2023-04-15T02:40:55.689Z,100901.00
2023-04-15T02:43:22.586Z,100904.88
2023-04-15T02:45:51.413Z,100898.69
2023-04-15T02:48:20.316Z,100893.44
2023-04-15T02:50:48.002Z,100891.22
2023-04-15T02:53:16.170Z,100899.19
2023-04-15T02:55:43.063Z,100884.91
2023-04-15T02:58:10.019Z,100890.22
2023-04-15T03:00:37.137Z,100888.19
2023-04-15T03:03:05.676Z,100890.59
2023-04-15T03:05:32.888Z,100899.69
2023-04-15T03:08:01.476Z,100902.22
2023-04-15T03:10:28.608Z,100892.16
2023-04-15T03:12:55.733Z,100895.25
2023-04-15T03:15:24.007Z,100899.75
2023-04-15T03:17:53.213Z,100905.66
2023-04-15T03:20:20.430Z,100909.19
2023-04-15T03:22:48.452Z,100902.59
2023-04-15T03:25:15.748Z,100899.28
2023-04-15T03:27:43.322Z,100904.50
2023-04-15T03:30:12.431Z,100901.28
2023-04-15T03:32:40.855Z,100894.13
2023-04-15T03:35:09.673Z,100907.88
2023-04-15T03:37:36.863Z,100914.81
2023-04-15T03:40:03.825Z,100913.59
2023-04-15T03:42:30.628Z,100916.47
2023-04-15T03:44:57.369Z,100918.09
2023-04-15T03:47:24.242Z,100917.56
2023-04-15T03:49:51.118Z,100927.13
2023-04-15T03:52:17.888Z,100921.16
2023-04-15T03:54:44.756Z,100921.66
2023-04-15T03:57:11.624Z,100926.22
2023-04-15T03:59:38.425Z,100916.19
2023-04-15T04:02:05.260Z,100923.44
2023-04-15T04:04:32.114Z,100927.88
2023-04-15T04:06:58.943Z,100929.03
2023-04-15T04:09:25.936Z,100928.03
2023-04-15T04:11:52.689Z,100923.81
2023-04-15T04:14:19.452Z,100921.81
2023-04-15T04:16:46.629Z,100923.56
2023-04-15T04:19:14.786Z,100920.75
2023-04-15T04:21:41.607Z,100924.66
2023-04-15T04:24:08.394Z,100931.91
2023-04-15T04:26:35.127Z,100930.50
2023-04-15T04:29:02.142Z,100933.38
2023-04-15T04:31:29.363Z,100923.19
2023-04-15T04:33:56.105Z,100925.56
2023-04-15T04:36:22.902Z,100928.41
2023-04-15T04:38:49.678Z,100918.41
2023-04-15T04:41:16.418Z,100921.28
2023-04-15T04:43:43.106Z,100918.47
2023-04-15T04:46:10.531Z,100924.78
2023-04-15T04:48:37.300Z,100928.53
2023-04-15T04:51:04.176Z,100931.91
2023-04-15T04:53:31.172Z,100933.69
2023-04-15T04:55:58.268Z,100933.31
2023-04-15T04:58:25.033Z,100938.50
2023-04-15T05:00:52.104Z,100936.09
2023-04-15T05:03:19.378Z,100935.47
2023-04-15T05:05:46.474Z,100936.13
2023-04-15T05:08:13.193Z,100940.84
2023-04-15T05:10:39.915Z,100944.78
2023-04-15T05:13:06.726Z,100952.06
2023-04-15T05:15:35.105Z,100955.50
2023-04-15T05:18:02.009Z,100962.94
2023-04-15T05:20:29.106Z,100952.00
2023-04-15T05:22:55.902Z,100956.88
2023-04-15T05:25:23.078Z,100963.97
2023-04-15T05:27:49.839Z,100956.97
2023-04-15T05:30:16.903Z,100970.22
2023-04-15T05:32:43.715Z,100971.31
2023-04-15T05:35:10.749Z,100968.38
2023-04-15T05:37:37.576Z,100962.03
2023-04-15T05:40:04.623Z,100964.97
2023-04-15T05:42:31.476Z,100968.03
2023-04-15T05:44:58.383Z,100972.31
2023-04-15T05:47:25.183Z,100980.19
2023-04-15T05:49:52.081Z,100975.69
2023-04-15T05:52:18.862Z,100985.25
2023-04-15T05:54:45.737Z,100987.38
2023-04-15T05:57:12.622Z,100989.03
2023-04-15T05:59:39.382Z,100973.09
2023-04-15T06:02:06.505Z,100983.41
2023-04-15T06:04:33.476Z,100985.34
2023-04-15T06:07:00.695Z,100982.94
2023-04-15T06:09:28.907Z,100981.28
2023-04-15T06:11:56.949Z,100985.44
2023-04-15T06:14:23.879Z,100987.44
2023-04-15T06:16:51.286Z,100993.25
2023-04-15T06:19:18.503Z,100996.00
2023-04-15T06:21:45.642Z,101010.44
2023-04-15T06:24:12.473Z,101011.63
2023-04-15T06:26:39.232Z,101011.34
2023-04-15T06:29:06.043Z,101014.19
2023-04-15T06:31:32.846Z,101019.72
2023-04-15T06:33:59.626Z,101014.59
2023-04-15T06:36:26.618Z,101016.84
2023-04-15T06:38:53.398Z,101016.47
2023-04-15T06:41:20.398Z,101019.31
2023-04-15T06:43:47.382Z,101011.25
2023-04-15T06:46:14.144Z,101010.06
2023-04-15T06:48:41.359Z,101006.50
2023-04-15T06:51:08.187Z,100998.59
2023-04-15T06:53:35.669Z,101004.84
2023-04-15T06:56:02.482Z,101015.38
2023-04-15T06:58:29.255Z,101023.09
2023-04-15T07:00:56.846Z,101029.94
2023-04-15T07:03:23.568Z,101021.91
2023-04-15T07:05:50.304Z,101028.59
2023-04-15T07:08:17.030Z,101032.41
2023-04-15T07:10:43.904Z,101032.63
2023-04-15T07:13:11.197Z,101033.59
2023-04-15T07:15:38.028Z,101034.44
2023-04-15T07:18:04.790Z,101036.25
2023-04-15T07:20:31.815Z,101028.22
2023-04-15T07:22:59.022Z,101028.13
2023-04-15T07:25:25.780Z,101030.06
2023-04-15T07:27:54.055Z,101034.66
2023-04-15T07:30:20.835Z,101019.47
2023-04-15T07:32:47.636Z,101022.97
2023-04-15T07:35:14.788Z,101035.56
2023-04-15T07:37:43.272Z,101038.13
2023-04-15T07:40:10.681Z,101034.38
2023-04-15T07:42:39.378Z,101033.56
2023-04-15T07:45:08.514Z,101044.09
2023-04-15T07:47:35.758Z,101044.91
2023-04-15T07:50:02.535Z,101044.25
2023-04-15T07:52:29.283Z,101038.66
2023-04-15T07:54:56.176Z,101047.53
2023-04-15T07:57:22.910Z,101050.66
2023-04-15T07:59:49.641Z,101052.38
2023-04-15T08:02:16.569Z,101052.97
2023-04-15T08:04:44.223Z,101057.31
2023-04-15T08:07:11.104Z,101053.19
2023-04-15T08:09:37.911Z,101055.88
2023-04-15T08:12:05.032Z,101045.75
2023-04-15T08:14:31.881Z,101047.19
2023-04-15T08:16:58.601Z,101046.59
2023-04-15T08:19:25.380Z,101041.03
2023-04-15T08:21:52.162Z,101038.97
2023-04-15T08:24:18.927Z,101042.47
2023-04-15T08:26:46.903Z,101034.41
2023-04-15T08:29:13.853Z,101035.00
2023-04-15T08:31:40.791Z,101039.94
2023-04-15T08:34:07.672Z,101039.13
2023-04-15T08:36:34.406Z,101044.88
2023-04-15T08:39:05.103Z,101036.47
2023-04-15T08:41:40.215Z,101026.38
2023-04-15T08:44:07.518Z,101031.47
2023-04-15T08:46:37.833Z,101024.16
2023-04-15T08:49:05.759Z,101025.78
2023-04-15T08:51:34.019Z,101020.84
2023-04-15T08:54:02.590Z,101027.66
2023-04-15T08:56:33.038Z,101032.31
2023-04-15T08:59:00.717Z,101027.34
2023-04-15T09:01:27.819Z,101026.81
2023-04-15T09:03:55.119Z,101032.91
2023-04-15T09:06:22.884Z,101030.75
2023-04-15T09:08:50.606Z,101026.97
2023-04-15T09:11:20.029Z,101027.25
2023-04-15T09:13:47.067Z,101021.63
2023-04-15T09:16:14.387Z,101027.41
2023-04-15T09:18:42.325Z,101017.94
2023-04-15T09:21:11.856Z,101013.41
2023-04-15T09:23:40.692Z,101008.78
2023-04-15T09:26:08.422Z,101014.47
2023-04-15T09:28:42.412Z,100997.38
2023-04-15T09:31:10.630Z,100985.53
2023-04-15T09:33:54.991Z,100986.06
2023-04-15T09:36:21.842Z,100989.22
2023-04-15T09:38:56.734Z,100982.81
2023-04-15T09:41:24.993Z,100987.88
2023-04-15T09:43:52.023Z,100981.69
2023-04-15T09:46:19.346Z,100988.69
2023-04-15T09:48:46.278Z,100994.72
2023-04-15T09:51:13.019Z,100991.19
2023-04-15T09:53:39.750Z,100993.44
2023-04-15T09:56:08.876Z,100999.44
2023-04-15T09:58:36.176Z,100994.06
2023-04-15T10:01:07.760Z,100999.13
2023-04-15T10:03:36.995Z,100994.81
2023-04-15T10:06:05.497Z,100990.53
2023-04-15T10:08:34.999Z,100988.50
2023-04-15T10:11:03.178Z,100995.31
2023-04-15T10:13:38.198Z,100983.56
2023-04-15T10:16:12.386Z,100976.44
2023-04-15T10:18:43.522Z,100965.72
2023-04-15T10:21:10.579Z,100954.00
2023-04-15T10:23:38.471Z,100956.00
2023-04-15T10:26:06.264Z,100958.50
2023-04-15T10:28:33.004Z,100962.22
2023-04-15T10:31:01.177Z,100966.69
2023-04-15T10:33:29.361Z,100968.13
2023-04-15T10:35:56.739Z,100968.56
2023-04-15T10:38:43.994Z,100986.31
2023-04-15T10:41:24.585Z,100991.38
2023-04-15T10:43:55.334Z,100995.59
2023-04-15T10:46:42.698Z,100990.16
2023-04-15T10:49:11.034Z,100989.94
2023-04-15T10:51:42.863Z,100997.69
2023-04-15T10:54:14.798Z,100996.41
2023-04-15T10:56:42.021Z,100985.72
2023-04-15T10:59:09.481Z,100987.00
2023-04-15T11:01:54.409Z,100986.06
2023-04-15T11:04:57.707Z,100990.53
2023-04-15T11:07:39.869Z,100996.94
2023-04-15T11:10:18.796Z,100992.41
2023-04-15T11:12:51.404Z,100999.69
2023-04-15T11:15:34.171Z,100998.13
2023-04-15T11:18:16.543Z,100995.59
2023-04-15T11:20:51.007Z,100992.38
2023-04-15T11:23:19.764Z,100985.38
2023-04-15T11:25:46.605Z,100980.31
2023-04-15T11:28:13.787Z,100976.44
2023-04-15T11:30:42.807Z,100981.94
2023-04-15T11:33:14.799Z,100977.59
2023-04-15T11:35:42.103Z,100963.06
2023-04-15T11:38:14.465Z,100962.72
2023-04-15T11:40:45.286Z,100958.72
2023-04-15T11:43:16.679Z,100964.72
2023-04-15T11:45:56.425Z,100955.66
2023-04-15T11:48:28.020Z,100958.81
2023-04-15T11:50:59.320Z,100962.78
2023-04-15T11:53:37.175Z,100951.78
2023-04-15T11:56:04.189Z,100947.25
2023-04-15T11:58:31.665Z,100955.84
2023-04-15T12:01:00.352Z,100951.34
2023-04-15T12:03:32.144Z,100945.03
2023-04-15T12:06:14.500Z,100929.88
2023-04-15T12:08:57.860Z,100932.34
2023-04-15T12:11:34.105Z,100933.94
2023-04-15T12:14:15.880Z,100938.38
2023-04-15T12:16:49.269Z,100943.22
2023-04-15T12:19:22.790Z,100947.47
2023-04-15T12:21:50.281Z,100951.47
2023-04-15T12:24:22.666Z,100943.00
2023-04-15T12:26:57.751Z,100946.41
2023-04-15T12:29:29.294Z,100949.22
2023-04-15T12:32:12.222Z,100944.91
2023-04-15T12:34:53.304Z,100947.19
2023-04-15T12:37:20.234Z,100941.16
2023-04-15T12:39:49.151Z,100935.44
2023-04-15T12:42:17.470Z,100931.81
2023-04-15T12:44:44.322Z,100941.88
2023-04-15T12:47:12.147Z,100943.78
2023-04-15T12:49:39.828Z,100942.34
2023-04-15T12:52:06.871Z,100944.94
2023-04-15T12:54:34.607Z,100948.53
2023-04-15T12:57:05.470Z,100949.72
2023-04-15T12:59:33.307Z,100949.72
2023-04-15T13:02:01.223Z,100942.03
2023-04-15T13:04:30.800Z,100949.91
2023-04-15T13:06:57.962Z,100943.69
2023-04-15T13:09:25.118Z,100935.59
2023-04-15T13:11:52.890Z,100935.84
2023-04-15T13:14:19.981Z,100937.47
2023-04-15T13:16:47.272Z,100932.13
2023-04-15T13:19:14.349Z,100947.84
2023-04-15T13:21:41.427Z,100955.94
2023-04-15T13:24:08.562Z,100949.81
2023-04-15T13:26:36.082Z,100949.00
2023-04-15T13:29:04.854Z,100941.41
2023-04-15T13:31:31.667Z,100940.91
2023-04-15T13:33:58.437Z,100932.44
2023-04-15T13:36:26.446Z,100934.75
2023-04-15T13:38:53.251Z,100935.84
2023-04-15T13:41:21.304Z,100935.09
2023-04-15T13:43:48.132Z,100928.00
2023-04-15T13:46:15.295Z,100949.28
2023-04-15T13:48:42.395Z,100949.19
2023-04-15T13:51:09.266Z,100954.41
2023-04-15T13:53:38.931Z,100954.53
2023-04-15T13:56:09.424Z,100945.25
2023-04-15T13:58:37.766Z,100948.31
2023-04-15T14:01:06.745Z,100950.13
2023-04-15T14:03:37.232Z,100944.09
2023-04-15T14:06:05.755Z,100930.97
2023-04-15T14:08:32.814Z,100921.72
2023-04-15T14:10:59.744Z,100942.47
2023-04-15T14:13:26.464Z,100939.63
2023-04-15T14:15:53.503Z,100956.09
2023-04-15T14:18:20.384Z,100951.81
2023-04-15T14:20:47.203Z,100952.72
2023-04-15T14:23:13.944Z,100946.25
2023-04-15T14:25:40.974Z,100955.00
2023-04-15T14:28:07.822Z,100946.34
2023-04-15T14:30:34.763Z,100950.03
2023-04-15T14:33:01.772Z,100949.19
2023-04-15T14:35:28.719Z,100949.19
2023-04-15T14:37:55.794Z,100952.16
2023-04-15T14:40:24.923Z,100957.03
2023-04-15T14:42:51.646Z,100951.78
2023-04-15T14:45:18.456Z,100956.16
2023-04-15T14:47:45.498Z,100958.34
2023-04-15T14:50:12.663Z,100960.22
2023-04-15T14:52:39.701Z,100960.56
2023-04-15T14:55:10.964Z,100970.59
2023-04-15T14:57:42.716Z,100977.19
2023-04-15T15:00:13.798Z,100980.16
2023-04-15T15:02:43.645Z,100971.47
2023-04-15T15:05:12.322Z,100957.09
2023-04-15T15:07:40.859Z,100953.94
2023-04-15T15:10:08.280Z,100968.16
2023-04-15T15:12:35.150Z,100984.44
2023-04-15T15:15:12.324Z,100983.44
2023-04-15T15:17:46.739Z,100986.06
2023-04-15T15:20:13.595Z,100984.41
2023-04-15T15:22:40.649Z,100991.19
2023-04-15T15:25:07.539Z,100989.09
2023-04-15T15:27:35.485Z,100994.28
2023-04-15T15:30:04.547Z,100993.13
2023-04-15T15:32:31.614Z,100998.81
2023-04-15T15:34:58.445Z,101010.06
2023-04-15T15:37:25.318Z,101009.13
2023-04-15T15:39:53.307Z,101016.19
2023-04-15T15:42:20.237Z,101002.66
2023-04-15T15:44:49.349Z,101007.31
2023-04-15T15:47:16.979Z,101028.94
2023-04-15T15:49:43.991Z,101025.00
2023-04-15T15:52:11.733Z,101021.56
2023-04-15T15:54:39.974Z,101023.03
2023-04-15T15:57:07.412Z,101024.44
2023-04-15T15:59:34.368Z,101035.59
2023-04-15T16:02:02.528Z,101039.09
2023-04-15T16:04:29.815Z,101040.38
2023-04-15T16:06:56.708Z,101043.84
2023-04-15T16:09:23.541Z,101050.03
2023-04-15T16:11:50.410Z,101044.44
2023-04-15T16:14:17.268Z,101048.16
2023-04-15T16:16:44.137Z,101044.91
2023-04-15T16:19:10.940Z,101047.81
2023-04-15T16:21:37.746Z,101040.91
2023-04-15T16:24:04.521Z,101052.41
2023-04-15T16:26:31.428Z,101055.63
2023-04-15T16:28:58.394Z,101051.06
2023-04-15T16:31:25.575Z,101042.88
2023-04-15T16:33:52.427Z,101053.44
2023-04-15T16:36:19.242Z,101063.09
2023-04-15T16:38:48.469Z,101059.88
2023-04-15T16:41:16.282Z,101060.63
2023-04-15T16:43:43.050Z,101057.72
2023-04-15T16:46:09.843Z,101060.03
2023-04-15T16:48:36.630Z,101062.72
2023-04-15T16:51:03.391Z,101066.84
2023-04-15T16:53:30.391Z,101075.28
2023-04-15T16:55:57.261Z,101068.22
2023-04-15T16:58:24.031Z,101082.38
2023-04-15T17:00:51.378Z,101075.06
2023-04-15T17:03:18.269Z,101081.13
2023-04-15T17:05:46.168Z,101081.25
2023-04-15T17:08:12.972Z,101081.75
2023-04-15T17:10:39.763Z,101084.31
2023-04-15T17:13:06.613Z,101096.47
2023-04-15T17:15:33.436Z,101096.88
2023-04-15T17:18:00.337Z,101092.38
2023-04-15T17:20:27.177Z,101085.53
2023-04-15T17:22:54.026Z,101086.78
2023-04-15T17:25:20.906Z,101086.56
2023-04-15T17:27:47.739Z,101082.50
2023-04-15T17:30:14.545Z,101097.03
2023-04-15T17:32:41.431Z,101096.63
2023-04-15T17:35:08.590Z,101103.41
2023-04-15T17:37:35.839Z,101097.56
2023-04-15T17:40:03.093Z,101099.84
2023-04-15T17:42:29.883Z,101095.06
2023-04-15T17:44:56.713Z,101102.53
2023-04-15T17:47:23.540Z,101103.34
2023-04-15T17:49:59.579Z,101108.72
2023-04-15T17:52:26.436Z,101112.88
2023-04-15T17:54:53.191Z,101119.06
2023-04-15T17:57:20.203Z,101116.81
2023-04-15T17:59:47.909Z,101110.63
2023-04-15T18:02:15.479Z,101112.69
2023-04-15T18:04:42.725Z,101113.72
2023-04-15T18:07:09.687Z,101108.34
2023-04-15T18:09:36.825Z,101115.59
2023-04-15T18:12:04.666Z,101114.56
2023-04-15T18:14:34.706Z,101108.19
2023-04-15T18:17:04.909Z,101119.31
2023-04-15T18:19:32.094Z,101121.41
2023-04-15T18:22:00.257Z,101123.28
2023-04-15T18:24:27.904Z,101116.47
2023-04-15T18:26:54.782Z,101125.16
2023-04-15T18:29:21.580Z,101122.47
2023-04-15T18:31:48.488Z,101126.59
2023-04-15T18:34:15.422Z,101138.22
2023-04-15T18:36:42.306Z,101143.16
2023-04-15T18:39:09.282Z,101138.84
2023-04-15T18:41:36.156Z,101152.88
2023-04-15T18:44:02.914Z,101151.00
2023-04-15T18:46:32.051Z,101148.53
2023-04-15T18:48:58.817Z,101163.25
2023-04-15T18:51:26.005Z,101172.53
2023-04-15T18:53:52.841Z,101178.34
2023-04-15T18:56:19.602Z,101185.34
2023-04-15T18:59:25.357Z,101186.38
2023-04-15T19:01:33.232Z,101184.31
2023-04-15T19:04:00.207Z,101190.09
2023-04-15T19:06:27.380Z,101184.09
2023-04-15T19:08:54.799Z,101190.91
2023-04-15T19:11:21.798Z,101204.56
2023-04-15T19:13:48.636Z,101214.47
2023-04-15T19:16:15.497Z,101212.81
2023-04-15T19:18:43.076Z,101206.44
2023-04-15T19:21:11.416Z,101213.63
2023-04-15T19:23:38.846Z,101221.69
2023-04-15T19:26:08.211Z,101234.72
2023-04-15T19:28:35.245Z,101226.03
2023-04-15T19:31:02.161Z,101233.47
2023-04-15T19:33:31.366Z,101232.66
2023-04-15T19:36:06.042Z,101242.53
2023-04-15T19:38:35.042Z,101242.50
2023-04-15T19:41:01.883Z,101246.63
2023-04-15T19:43:30.954Z,101244.69
2023-04-15T19:45:57.935Z,101258.88
2023-04-15T19:48:25.662Z,101259.50
2023-04-15T19:50:52.538Z,101259.66
2023-04-15T19:53:19.378Z,101263.56
2023-04-15T19:55:47.220Z,101269.50
2023-04-15T19:58:14.301Z,101285.78
2023-04-15T20:00:41.162Z,101306.72
2023-04-15T20:03:08.042Z,101287.75
2023-04-15T20:05:35.610Z,101286.44
2023-04-15T20:08:03.097Z,101295.94
2023-04-15T20:10:31.679Z,101300.50
2023-04-15T20:12:58.668Z,101295.06
2023-04-15T20:15:26.093Z,101295.34
2023-04-15T20:17:52.974Z,101290.09
2023-04-15T20:20:20.423Z,101294.16
2023-04-15T20:22:47.435Z,101294.44
2023-04-15T20:25:14.336Z,101298.94
2023-04-15T20:27:41.196Z,101301.19
2023-04-15T20:30:08.707Z,101306.50
2023-04-15T20:32:36.293Z,101327.72
2023-04-15T20:35:07.094Z,101346.66
2023-04-15T20:37:34.623Z,101353.09
2023-04-15T20:40:01.840Z,101343.66
2023-04-15T20:42:33.296Z,101354.59
2023-04-15T20:45:00.103Z,101368.44
2023-04-15T20:47:27.067Z,101378.16
2023-04-15T20:49:54.259Z,101382.81
2023-04-15T20:52:21.182Z,101393.16
2023-04-15T20:54:47.961Z,101387.41
2023-04-15T20:57:14.734Z,101393.09
2023-04-15T20:59:41.478Z,101383.63
2023-04-15T21:02:08.322Z,101388.59
2023-04-15T21:04:35.392Z,101387.94
2023-04-15T21:07:02.122Z,101390.47
2023-04-15T21:09:29.103Z,101397.69
2023-04-15T21:14:25.667Z,101395.50
2023-04-15T21:16:52.400Z,101403.78
2023-04-15T21:19:19.250Z,101404.19
2023-04-15T21:21:46.145Z,101395.94
2023-04-15T21:24:12.960Z,101391.69
2023-04-15T21:26:39.738Z,101389.47
2023-04-15T21:29:08.761Z,101393.97
2023-04-15T21:31:37.454Z,101402.00
2023-04-15T21:34:04.366Z,101413.50
2023-04-15T21:36:31.892Z,101422.84
2023-04-15T21:38:58.752Z,101424.53
2023-04-15T21:41:25.961Z,101421.91
2023-04-15T21:43:53.364Z,101426.88
2023-04-15T21:46:23.259Z,101426.16
2023-04-15T21:48:53.599Z,101437.69
2023-04-15T21:51:20.673Z,101437.69
2023-04-15T21:53:47.640Z,101438.53
2023-04-15T21:56:14.518Z,101435.09
2023-04-15T21:58:41.499Z,101431.94
2023-04-15T22:01:08.305Z,101427.97
2023-04-15T22:03:35.714Z,101434.19
2023-04-15T22:06:03.690Z,101429.09
2023-04-15T22:08:38.705Z,101431.31
2023-04-15T22:11:28.771Z,101437.84
2023-04-15T22:13:57.183Z,101437.03
2023-04-15T22:16:25.762Z,101443.31
2023-04-15T22:18:52.720Z,101441.72
2023-04-15T22:21:19.828Z,101435.44
2023-04-15T22:23:47.788Z,101429.28
2023-04-15T22:26:14.996Z,101430.13
2023-04-15T22:28:42.078Z,101436.66
2023-04-15T22:31:09.053Z,101441.00
2023-04-15T22:33:36.052Z,101436.38
2023-04-15T22:36:02.892Z,101447.56
2023-04-15T22:38:29.721Z,101453.41
2023-04-15T22:40:56.530Z,101449.22
2023-04-15T22:43:23.356Z,101445.50
2023-04-15T22:45:51.189Z,101454.63
2023-04-15T22:48:18.812Z,101462.50
2023-04-15T22:50:46.170Z,101462.50
2023-04-15T22:53:13.151Z,101462.13
2023-04-15T22:55:39.917Z,101466.19
2023-04-15T22:58:06.852Z,101467.88
2023-04-15T23:00:33.592Z,101460.84
2023-04-15T23:03:00.623Z,101464.25
2023-04-15T23:05:27.764Z,101461.56
2023-04-15T23:07:54.757Z,101452.34
2023-04-15T23:10:21.754Z,101447.94
2023-04-15T23:12:48.722Z,101455.22
2023-04-15T23:15:15.824Z,101447.09
2023-04-15T23:17:43.369Z,101453.50
2023-04-15T23:20:11.407Z,101457.28
2023-04-15T23:22:38.963Z,101455.88
2023-04-15T23:25:08.716Z,101470.47
2023-04-15T23:27:36.434Z,101462.78
2023-04-15T23:30:03.952Z,101470.00
2023-04-15T23:32:30.893Z,101475.28
2023-04-15T23:34:57.791Z,101478.22
2023-04-15T23:37:24.486Z,101479.88
2023-04-15T23:39:58.622Z,101482.84
2023-04-15T23:42:25.967Z,101477.84
2023-04-15T23:44:52.863Z,101478.69
2023-04-15T23:47:26.888Z,101478.50
2023-04-15T23:49:53.815Z,101479.31
2023-04-15T23:52:20.739Z,101484.59
2023-04-15T23:54:47.494Z,101480.06
2023-04-15T23:57:14.272Z,101481.91
2023-04-15T23:59:41.028Z,101478.41
